createdAt,value
2023-04-05T00:01:09.454Z,5.72
2023-04-05T00:03:37.392Z,4.94
2023-04-05T00:06:05.880Z,4.42
2023-04-05T00:08:33.703Z,4.05
2023-04-05T00:11:01.508Z,3.77
2023-04-05T00:13:29.313Z,3.54
2023-04-05T00:15:58.479Z,3.97
2023-04-05T00:18:26.408Z,5.75
2023-04-05T00:20:54.383Z,6.71
2023-04-05T00:23:22.952Z,5.94
2023-04-05T00:25:51.114Z,5.13
2023-04-05T00:28:18.916Z,4.59
2023-04-05T00:30:46.948Z,4.21
2023-04-05T00:33:14.947Z,3.92
2023-04-05T00:35:42.896Z,3.70
2023-04-05T00:38:10.818Z,3.52
2023-04-05T00:40:38.704Z,3.77
2023-04-05T00:43:06.547Z,5.48
2023-04-05T00:45:34.502Z,6.52
2023-04-05T00:48:02.502Z,5.81
2023-04-05T00:50:31.045Z,5.05
2023-04-05T00:52:59.201Z,4.53
2023-04-05T00:55:27.273Z,4.17
2023-04-05T00:57:56.019Z,3.90
2023-04-05T01:00:24.495Z,3.67
2023-04-05T01:02:55.836Z,3.47
2023-04-05T01:05:30.277Z,3.28
2023-04-05T01:08:30.133Z,3.11
2023-04-05T01:11:02.878Z,2.94
2023-04-05T01:13:30.787Z,3.21
2023-04-05T01:15:59.192Z,4.86
2023-04-05T01:18:27.871Z,6.46
2023-04-05T01:21:23.209Z,6.55
2023-04-05T01:24:09.926Z,5.42
2023-04-05T01:26:51.952Z,4.68
2023-04-05T01:30:11.356Z,4.21
2023-04-05T01:32:51.067Z,3.80
2023-04-05T01:35:27.308Z,3.54
2023-04-05T01:38:00.910Z,3.75
2023-04-05T01:40:31.277Z,5.41
2023-04-05T01:43:03.067Z,6.42
2023-04-05T01:45:31.932Z,5.66
2023-04-05T01:47:59.813Z,4.84
2023-04-05T01:50:27.757Z,4.27
2023-04-05T01:52:55.713Z,3.87
2023-04-05T01:55:23.557Z,3.61
2023-04-05T01:57:56.498Z,4.50
2023-04-05T02:00:24.815Z,6.10
2023-04-05T02:02:52.993Z,6.27
2023-04-05T02:05:21.022Z,5.32
2023-04-05T02:07:48.926Z,4.58
2023-04-05T02:10:18.465Z,4.08
2023-04-05T02:12:46.496Z,3.71
2023-04-05T02:15:14.323Z,3.42
2023-04-05T02:17:45.803Z,3.70
2023-04-05T02:20:14.776Z,5.34
2023-04-05T02:22:45.619Z,6.29
2023-04-05T02:25:13.844Z,5.51
2023-04-05T02:27:41.630Z,4.70
2023-04-05T02:30:10.582Z,4.14
2023-04-05T02:32:38.409Z,3.75
2023-04-05T02:35:07.033Z,3.43
2023-04-05T02:37:35.177Z,3.65
2023-04-05T02:40:06.423Z,5.27
2023-04-05T02:42:34.203Z,6.17
2023-04-05T02:45:02.526Z,5.35
2023-04-05T02:47:30.410Z,4.55
2023-04-05T02:49:58.414Z,3.99
2023-04-05T02:52:26.263Z,3.59
2023-04-05T02:54:54.154Z,3.26
2023-04-05T02:57:22.591Z,3.13
2023-04-05T02:59:52.121Z,4.45
2023-04-05T03:02:20.481Z,5.98
2023-04-05T03:04:48.359Z,5.66
2023-04-05T03:07:18.686Z,4.73
2023-04-05T03:09:47.543Z,4.06
2023-04-05T03:12:15.678Z,3.61
2023-04-05T03:14:43.611Z,3.27
2023-04-05T03:17:12.581Z,2.99
2023-04-05T03:19:40.451Z,3.30
2023-04-05T03:22:08.584Z,4.99
2023-04-05T03:24:36.364Z,6.02
2023-04-05T03:27:06.118Z,5.23
2023-04-05T03:29:34.080Z,4.39
2023-04-05T03:32:01.979Z,3.82
2023-04-05T03:34:29.894Z,3.43
2023-04-05T03:36:57.793Z,3.11
2023-04-05T03:39:25.704Z,3.28
2023-04-05T03:41:53.647Z,4.92
2023-04-05T03:44:21.445Z,5.91
2023-04-05T03:46:49.365Z,5.13
2023-04-05T03:49:17.210Z,4.30
2023-04-05T03:51:44.952Z,3.72
2023-04-05T03:54:12.795Z,3.31
2023-04-05T03:56:40.724Z,2.99
2023-04-05T03:59:09.126Z,3.26
2023-04-05T04:01:37.133Z,4.94
2023-04-05T04:04:05.168Z,5.97
2023-04-05T04:06:33.396Z,5.15
2023-04-05T04:09:01.354Z,4.29
2023-04-05T04:11:29.166Z,3.71
2023-04-05T04:13:57.051Z,3.31
2023-04-05T04:16:26.718Z,3.00
2023-04-05T04:18:56.427Z,3.22
2023-04-05T04:21:25.427Z,4.90
2023-04-05T04:23:53.333Z,5.96
2023-04-05T04:26:26.958Z,5.21
2023-04-05T04:28:57.729Z,4.38
2023-04-05T04:31:25.546Z,3.82
2023-04-05T04:33:53.394Z,3.44
2023-04-05T04:36:36.177Z,3.13
2023-04-05T04:39:07.171Z,3.51
2023-04-05T04:41:36.029Z,5.27
2023-04-05T04:44:05.457Z,6.17
2023-04-05T04:46:42.793Z,5.32
2023-04-05T04:49:10.843Z,4.45
2023-04-05T04:51:39.216Z,3.90
2023-04-05T04:54:07.541Z,3.51
2023-04-05T04:56:35.327Z,3.23
2023-04-05T04:59:06.582Z,3.48
2023-04-05T05:01:34.587Z,5.21
2023-04-05T05:04:04.216Z,6.26
2023-04-05T05:06:32.065Z,5.50
2023-04-05T05:08:59.836Z,4.69
2023-04-05T05:11:29.019Z,4.15
2023-04-05T05:13:56.760Z,3.78
2023-04-05T05:16:24.732Z,3.51
2023-04-05T05:18:52.915Z,3.30
2023-04-05T05:21:21.059Z,3.99
2023-04-05T05:23:49.029Z,5.80
2023-04-05T05:26:16.892Z,6.69
2023-04-05T05:28:45.981Z,5.87
2023-04-05T05:31:18.207Z,5.08
2023-04-05T05:33:49.525Z,4.51
2023-04-05T05:36:20.205Z,4.13
2023-04-05T05:38:49.190Z,3.84
2023-04-05T05:41:17.145Z,4.45
2023-04-05T05:43:45.009Z,6.23
2023-04-05T05:46:13.357Z,6.86
2023-04-05T05:48:41.971Z,5.96
2023-04-05T05:51:10.049Z,5.22
2023-04-05T05:53:39.421Z,4.73
2023-04-05T05:56:07.536Z,4.39
2023-04-05T05:58:35.363Z,4.60
2023-04-05T06:01:04.062Z,6.30
2023-04-05T06:03:32.150Z,7.41
2023-04-05T06:06:00.216Z,6.72
2023-04-05T06:08:28.024Z,5.97
2023-04-05T06:10:56.006Z,5.46
2023-04-05T06:13:24.140Z,5.12
2023-04-05T06:15:51.952Z,4.85
2023-04-05T06:18:20.881Z,4.64
2023-04-05T06:20:48.742Z,4.46
2023-04-05T06:23:16.504Z,4.71
2023-04-05T06:25:44.505Z,6.44
2023-04-05T06:28:12.311Z,7.57
2023-04-05T06:30:40.272Z,6.81
2023-04-05T06:33:08.205Z,6.07
2023-04-05T06:35:36.207Z,5.58
2023-04-05T06:38:04.048Z,5.25
2023-04-05T06:40:31.994Z,4.99
2023-04-05T06:42:59.833Z,4.80
2023-04-05T06:45:27.703Z,4.65
2023-04-05T06:47:55.977Z,4.51
2023-04-05T06:50:24.091Z,4.39
2023-04-05T06:52:51.944Z,4.28
2023-04-05T06:55:19.776Z,4.21
2023-04-05T06:57:47.596Z,4.13
2023-04-05T07:00:17.511Z,4.74
2023-04-05T07:02:45.456Z,6.62
2023-04-05T07:05:13.274Z,7.69
2023-04-05T07:07:43.305Z,7.04
2023-04-05T07:10:11.653Z,6.33
2023-04-05T07:12:40.036Z,5.88
2023-04-05T07:15:08.841Z,5.72
2023-04-05T07:17:36.741Z,5.82
2023-04-05T07:20:08.225Z,6.04
2023-04-05T07:22:36.095Z,6.10
2023-04-05T07:25:05.613Z,6.02
2023-04-05T07:27:33.404Z,5.92
2023-04-05T07:30:01.626Z,5.81
2023-04-05T07:32:29.601Z,5.73
2023-04-05T07:34:57.597Z,5.67
2023-04-05T07:37:27.325Z,5.63
2023-04-05T07:39:55.198Z,5.58
2023-04-05T07:42:23.161Z,5.50
2023-04-05T07:44:51.040Z,5.48
2023-04-05T07:47:18.867Z,5.54
2023-04-05T07:49:46.699Z,5.63
2023-04-05T07:52:14.713Z,5.73
2023-04-05T07:54:43.468Z,5.91
2023-04-05T07:57:17.682Z,6.14
2023-04-05T07:59:46.122Z,6.27
2023-04-05T08:02:14.964Z,6.30
2023-04-05T08:04:43.448Z,6.30
2023-04-05T08:07:11.689Z,6.28
2023-04-05T08:09:39.524Z,6.29
2023-04-05T08:12:07.780Z,6.44
2023-04-05T08:14:35.858Z,6.63
2023-04-05T08:17:03.857Z,6.83
2023-04-05T08:19:31.900Z,7.01
2023-04-05T08:21:59.637Z,7.21
2023-04-05T08:24:27.517Z,7.38
2023-04-05T08:26:59.264Z,7.43
2023-04-05T08:29:27.080Z,7.44
2023-04-05T08:31:58.659Z,7.50
2023-04-05T08:34:26.597Z,7.63
2023-04-05T08:36:59.621Z,7.83
2023-04-05T08:39:27.599Z,8.10
2023-04-05T08:42:09.663Z,8.35
2023-04-05T08:44:38.100Z,8.61
2023-04-05T08:47:05.970Z,8.83
2023-04-05T08:49:33.923Z,8.93
2023-04-05T08:52:03.167Z,9.02
2023-04-05T08:54:31.063Z,9.27
2023-04-05T08:56:59.821Z,9.63
2023-04-05T08:59:27.773Z,10.06
2023-04-05T09:01:56.106Z,10.46
2023-04-05T09:04:27.432Z,10.87
2023-04-05T09:06:58.956Z,11.26
2023-04-05T09:09:33.074Z,11.49
2023-04-05T09:12:01.480Z,11.51
2023-04-05T09:14:31.371Z,11.40
2023-04-05T09:17:02.935Z,11.23
2023-04-05T09:19:30.914Z,11.02
2023-04-05T09:22:09.817Z,10.83
2023-04-05T09:24:42.024Z,10.79
2023-04-05T09:27:20.528Z,11.00
2023-04-05T09:29:50.467Z,11.37
2023-04-05T09:32:21.306Z,11.76
2023-04-05T09:34:50.322Z,12.17
2023-04-05T09:37:21.843Z,12.61
2023-04-05T09:39:52.170Z,13.03
2023-04-05T09:42:23.339Z,13.44
2023-04-05T09:45:01.544Z,13.84
2023-04-05T09:47:33.142Z,14.22
2023-04-05T09:50:02.440Z,14.57
2023-04-05T09:52:32.273Z,14.90
2023-04-05T09:55:04.586Z,15.23
2023-04-05T09:57:41.145Z,15.56
2023-04-05T10:00:19.740Z,15.87
2023-04-05T10:02:47.799Z,16.03
2023-04-05T10:05:15.960Z,16.07
2023-04-05T10:07:45.157Z,15.93
2023-04-05T10:10:13.548Z,15.66
2023-04-05T10:12:42.401Z,15.34
2023-04-05T10:15:12.285Z,15.13
2023-04-05T10:17:52.428Z,15.06
2023-04-05T10:20:24.960Z,15.13
2023-04-05T10:23:05.131Z,15.27
2023-04-05T10:25:54.077Z,15.45
2023-04-05T10:28:33.050Z,15.60
2023-04-05T10:31:39.011Z,15.72
2023-04-05T10:34:09.142Z,15.79
2023-04-05T10:36:48.748Z,15.67
2023-04-05T10:39:45.843Z,15.51
2023-04-05T10:42:28.864Z,15.37
2023-04-05T10:45:04.885Z,15.14
2023-04-05T10:47:38.776Z,14.84
2023-04-05T10:50:09.492Z,14.52
2023-04-05T10:52:37.542Z,14.33
2023-04-05T10:55:06.312Z,14.28
2023-04-05T10:57:35.022Z,14.31
2023-04-05T11:00:03.326Z,14.25
2023-04-05T11:02:31.576Z,14.06
2023-04-05T11:05:04.904Z,13.80
2023-04-05T11:07:45.926Z,13.52
2023-04-05T11:10:19.214Z,13.26
2023-04-05T11:12:47.043Z,13.18
2023-04-05T11:15:44.013Z,13.25
2023-04-05T11:18:18.034Z,13.40
2023-04-05T11:20:56.202Z,13.53
2023-04-05T11:23:25.368Z,13.69
2023-04-05T11:25:57.666Z,13.88
2023-04-05T11:28:40.616Z,14.11
2023-04-05T11:31:18.325Z,14.32
2023-04-05T11:33:55.694Z,14.42
2023-04-05T11:36:33.955Z,14.44
2023-04-05T11:39:22.712Z,14.46
2023-04-05T11:42:04.381Z,14.46
2023-04-05T11:44:43.795Z,14.34
2023-04-05T11:47:12.654Z,14.15
2023-04-05T11:49:42.420Z,13.93
2023-04-05T11:52:16.795Z,13.64
2023-04-05T11:54:49.705Z,13.34
2023-04-05T11:57:23.217Z,13.06
2023-04-05T11:59:52.466Z,12.78
2023-04-05T12:02:21.599Z,12.51
2023-04-05T12:04:57.738Z,12.23
2023-04-05T12:07:32.526Z,11.96
2023-04-05T12:10:13.966Z,11.72
2023-04-05T12:12:44.670Z,11.49
2023-04-05T12:15:14.749Z,11.28
2023-04-05T12:17:49.873Z,11.06
2023-04-05T12:20:22.120Z,10.85
2023-04-05T12:22:52.897Z,10.66
2023-04-05T12:25:21.698Z,10.49
2023-04-05T12:27:49.529Z,10.32
2023-04-05T12:30:19.318Z,10.18
2023-04-05T12:32:54.900Z,10.11
2023-04-05T12:35:27.107Z,10.07
2023-04-05T12:37:57.805Z,10.05
2023-04-05T12:40:25.956Z,10.13
2023-04-05T12:43:02.259Z,10.30
2023-04-05T12:45:31.358Z,10.50
2023-04-05T12:48:00.244Z,10.66
2023-04-05T12:50:30.772Z,10.82
2023-04-05T12:53:01.377Z,10.97
2023-04-05T12:55:30.184Z,11.11
2023-04-05T12:58:02.476Z,11.25
2023-04-05T13:00:31.515Z,11.28
2023-04-05T13:03:00.093Z,11.23
2023-04-05T13:05:30.894Z,11.10
2023-04-05T13:07:59.618Z,10.97
2023-04-05T13:10:27.700Z,10.82
2023-04-05T13:12:55.771Z,10.66
2023-04-05T13:15:23.719Z,10.52
2023-04-05T13:17:53.408Z,10.39
2023-04-05T13:20:21.672Z,10.26
2023-04-05T13:22:50.684Z,10.14
2023-04-05T13:25:18.701Z,10.02
2023-04-05T13:27:46.677Z,9.89
2023-04-05T13:30:14.797Z,9.77
2023-04-05T13:32:42.745Z,9.67
2023-04-05T13:35:11.300Z,9.56
2023-04-05T13:37:39.392Z,9.44
2023-04-05T13:40:08.186Z,9.32
2023-04-05T13:42:36.086Z,9.20
2023-04-05T13:45:05.091Z,9.09
2023-04-05T13:47:32.990Z,8.99
2023-04-05T13:50:01.118Z,8.90
2023-04-05T13:52:29.905Z,8.83
2023-04-05T13:55:01.769Z,8.78
2023-04-05T13:57:32.062Z,8.75
2023-04-05T14:00:00.235Z,8.75
2023-04-05T14:02:28.590Z,8.79
2023-04-05T14:04:56.833Z,8.83
2023-04-05T14:07:24.894Z,8.85
2023-04-05T14:09:52.758Z,8.87
2023-04-05T14:12:20.801Z,8.87
2023-04-05T14:14:49.269Z,8.85
2023-04-05T14:17:18.138Z,8.85
2023-04-05T14:19:46.175Z,8.86
2023-04-05T14:22:14.365Z,8.88
2023-04-05T14:24:42.175Z,8.90
2023-04-05T14:27:10.282Z,8.92
2023-04-05T14:29:38.189Z,8.91
2023-04-05T14:32:21.038Z,8.89
2023-04-05T14:34:49.195Z,8.85
2023-04-05T14:37:18.261Z,8.82
2023-04-05T14:39:47.117Z,8.77
2023-04-05T14:42:15.071Z,8.72
2023-04-05T14:44:42.912Z,8.67
2023-04-05T14:47:10.760Z,8.61
2023-04-05T14:49:38.779Z,8.55
2023-04-05T14:52:06.649Z,8.49
2023-04-05T14:54:34.531Z,8.43
2023-04-05T14:57:02.617Z,8.40
2023-04-05T14:59:31.016Z,8.38
2023-04-05T15:01:58.970Z,8.37
2023-04-05T15:04:27.854Z,8.37
2023-04-05T15:06:56.051Z,8.38
2023-04-05T15:09:23.830Z,8.39
2023-04-05T15:11:52.987Z,8.38
2023-04-05T15:14:31.215Z,8.40
2023-04-05T15:17:00.243Z,8.38
2023-04-05T15:19:28.267Z,8.36
2023-04-05T15:21:56.238Z,8.34
2023-04-05T15:24:23.959Z,8.30
2023-04-05T15:26:51.837Z,8.26
2023-04-05T15:29:19.718Z,8.23
2023-04-05T15:31:47.785Z,8.20
2023-04-05T15:34:15.908Z,8.18
2023-04-05T15:36:43.864Z,8.15
2023-04-05T15:39:12.252Z,8.11
2023-04-05T15:41:40.153Z,8.07
2023-04-05T15:44:08.025Z,8.04
2023-04-05T15:46:36.238Z,8.01
2023-04-05T15:49:04.562Z,7.96
2023-04-05T15:51:34.358Z,7.91
2023-04-05T15:54:03.811Z,7.85
2023-04-05T15:56:32.219Z,7.79
2023-04-05T15:59:00.459Z,7.77
2023-04-05T16:01:28.777Z,7.75
2023-04-05T16:03:56.690Z,7.73
2023-04-05T16:06:28.494Z,7.72
2023-04-05T16:08:56.640Z,7.68
2023-04-05T16:11:25.162Z,7.65
2023-04-05T16:13:54.254Z,7.62
2023-04-05T16:16:32.549Z,7.58
2023-04-05T16:19:07.500Z,7.52
2023-04-05T16:21:35.444Z,7.49
2023-04-05T16:24:04.206Z,7.47
2023-04-05T16:26:32.097Z,7.43
2023-04-05T16:29:00.582Z,7.39
2023-04-05T16:31:28.951Z,7.35
2023-04-05T16:33:57.185Z,7.31
2023-04-05T16:36:24.981Z,7.27
2023-04-05T16:38:52.814Z,7.23
2023-04-05T16:41:20.654Z,7.19
2023-04-05T16:43:48.445Z,7.13
2023-04-05T16:46:16.444Z,7.09
2023-04-05T16:48:44.642Z,7.04
2023-04-05T16:51:13.150Z,7.00
2023-04-05T16:53:41.030Z,6.95
2023-04-05T16:56:08.963Z,6.91
2023-04-05T16:58:37.166Z,6.86
2023-04-05T17:01:05.746Z,6.82
2023-04-05T17:03:33.546Z,6.78
2023-04-05T17:06:01.802Z,6.73
2023-04-05T17:08:30.297Z,6.69
2023-04-05T17:10:58.220Z,6.64
2023-04-05T17:13:26.588Z,6.59
2023-04-05T17:15:54.476Z,6.54
2023-04-05T17:18:22.303Z,6.49
2023-04-05T17:20:50.072Z,6.45
2023-04-05T17:23:18.139Z,6.39
2023-04-05T17:25:46.114Z,6.34
2023-04-05T17:28:13.977Z,6.29
2023-04-05T17:30:41.726Z,6.24
2023-04-05T17:33:09.912Z,6.18
2023-04-05T17:35:38.116Z,6.13
2023-04-05T17:38:06.082Z,6.07
2023-04-05T17:40:34.013Z,6.02
2023-04-05T17:43:02.075Z,5.96
2023-04-05T17:45:30.074Z,5.90
2023-04-05T17:47:58.182Z,5.84
2023-04-05T17:50:27.564Z,5.78
2023-04-05T17:52:55.800Z,5.71
2023-04-05T17:55:24.507Z,5.65
2023-04-05T17:57:53.363Z,5.59
2023-04-05T18:00:21.343Z,5.52
2023-04-05T18:05:20.400Z,5.40
2023-04-05T18:07:48.450Z,5.33
2023-04-05T18:10:16.705Z,5.27
2023-04-05T18:12:44.576Z,5.22
2023-04-05T18:15:12.569Z,5.14
2023-04-05T18:17:40.689Z,5.09
2023-04-05T18:20:09.177Z,5.03
2023-04-05T18:22:37.155Z,4.96
2023-04-05T18:25:06.703Z,4.89
2023-04-05T18:27:34.585Z,4.82
2023-04-05T18:30:02.461Z,4.75
2023-04-05T18:32:30.387Z,4.68
2023-04-05T18:34:58.680Z,4.62
2023-04-05T18:37:26.516Z,4.56
2023-04-05T18:39:54.396Z,4.50
2023-04-05T18:42:22.345Z,4.44
2023-04-05T18:44:50.560Z,4.38
2023-04-05T18:47:18.774Z,4.32
2023-04-05T18:49:46.616Z,4.27
2023-04-05T18:52:14.621Z,4.22
2023-04-05T18:54:42.720Z,4.16
2023-04-05T18:57:10.589Z,4.12
2023-04-05T18:59:38.441Z,4.07
2023-04-05T19:02:06.755Z,4.02
2023-04-05T19:04:34.702Z,3.97
2023-04-05T19:07:02.743Z,3.93
2023-04-05T19:09:30.933Z,3.89
2023-04-05T19:11:58.738Z,3.84
2023-04-05T19:14:26.840Z,3.80
2023-04-05T19:16:55.086Z,3.77
2023-04-05T19:19:23.230Z,3.73
2023-04-05T19:21:51.050Z,3.69
2023-04-05T19:24:20.898Z,3.66
2023-04-05T19:26:48.878Z,3.62
2023-04-05T19:29:16.762Z,3.58
2023-04-05T19:31:44.951Z,3.54
2023-04-05T19:34:12.960Z,3.50
2023-04-05T19:36:41.911Z,3.45
2023-04-05T19:39:10.724Z,3.42
2023-04-05T19:41:38.484Z,3.39
2023-04-05T19:44:14.274Z,3.34
2023-04-05T19:46:42.750Z,3.30
2023-04-05T19:49:14.164Z,3.27
2023-04-05T19:51:42.550Z,3.24
2023-04-05T19:54:13.152Z,3.20
2023-04-05T19:56:42.107Z,3.17
2023-04-05T19:59:13.087Z,3.13
2023-04-05T20:01:42.131Z,3.10
2023-04-05T20:04:15.320Z,3.07
2023-04-05T20:06:47.596Z,3.04
2023-04-05T20:09:18.232Z,3.01
2023-04-05T20:11:59.573Z,2.98
2023-04-05T20:14:41.058Z,2.95
2023-04-05T20:17:09.889Z,2.91
2023-04-05T20:19:39.920Z,2.88
2023-04-05T20:22:09.613Z,2.85
2023-04-05T20:24:38.909Z,2.81
2023-04-05T20:27:06.872Z,2.77
2023-04-05T20:29:36.227Z,2.73
2023-04-05T20:32:05.932Z,2.69
2023-04-05T20:34:36.622Z,2.64
2023-04-05T20:37:09.955Z,2.61
2023-04-05T20:39:38.221Z,2.57
2023-04-05T20:42:07.404Z,2.53
2023-04-05T20:44:35.352Z,2.49
2023-04-05T20:47:03.231Z,2.45
2023-04-05T20:49:31.164Z,2.41
2023-04-05T20:51:59.777Z,2.37
2023-04-05T20:54:27.568Z,2.33
2023-04-05T20:56:55.499Z,2.29
2023-04-05T20:59:23.377Z,2.24
2023-04-05T21:01:51.423Z,2.20
2023-04-05T21:04:19.281Z,2.16
2023-04-05T21:06:47.193Z,2.12
2023-04-05T21:09:14.968Z,2.08
2023-04-05T21:11:42.795Z,2.04
2023-04-05T21:14:11.129Z,2.00
2023-04-05T21:16:38.971Z,1.96
2023-04-05T21:19:07.010Z,1.93
2023-04-05T21:21:35.014Z,1.88
2023-04-05T21:24:02.991Z,1.85
2023-04-05T21:26:30.985Z,1.81
2023-04-05T21:28:58.713Z,1.78
2023-04-05T21:31:27.146Z,1.75
2023-04-05T21:33:55.098Z,1.72
2023-04-05T21:36:22.959Z,1.70
2023-04-05T21:38:51.406Z,1.68
2023-04-05T21:41:19.274Z,1.64
2023-04-05T21:43:47.050Z,1.62
2023-04-05T21:46:14.850Z,1.59
2023-04-05T21:48:42.701Z,1.57
2023-04-05T21:51:10.770Z,1.55
2023-04-05T21:53:38.591Z,1.52
2023-04-05T21:56:06.506Z,1.50
2023-04-05T21:58:34.213Z,1.47
2023-04-05T22:01:02.016Z,1.44
2023-04-05T22:03:29.992Z,1.42
2023-04-05T22:05:57.839Z,1.40
2023-04-05T22:08:26.890Z,1.38
2023-04-05T22:10:55.126Z,1.35
2023-04-05T22:13:22.909Z,1.33
2023-04-05T22:15:50.652Z,1.31
2023-04-05T22:18:18.489Z,1.29
2023-04-05T22:20:46.497Z,1.71
2023-04-05T22:23:14.478Z,3.58
2023-04-05T22:25:42.359Z,4.90
2023-04-05T22:28:10.332Z,4.31
2023-04-05T22:30:43.833Z,3.58
2023-04-05T22:33:15.085Z,3.10
2023-04-05T22:35:43.264Z,2.79
2023-04-05T22:38:11.351Z,2.56
2023-04-05T22:40:39.280Z,2.38
2023-04-05T22:43:07.457Z,2.24
2023-04-05T22:45:35.512Z,2.11
2023-04-05T22:48:04.394Z,1.99
2023-04-05T22:50:33.070Z,1.88
2023-04-05T22:53:00.976Z,1.78
2023-04-05T22:55:29.106Z,1.70
2023-04-05T22:57:56.903Z,1.61
2023-04-05T23:00:24.896Z,1.53
2023-04-05T23:02:52.792Z,1.46
2023-04-05T23:05:20.623Z,1.40
2023-04-05T23:07:48.396Z,1.34
2023-04-05T23:10:16.794Z,1.29
2023-04-05T23:12:46.451Z,1.65
2023-04-05T23:15:14.807Z,3.46
2023-04-05T23:17:42.592Z,5.17
2023-04-05T23:20:11.212Z,5.43
2023-04-05T23:22:39.064Z,4.47
2023-04-05T23:25:08.179Z,3.72
2023-04-05T23:27:35.933Z,3.25
2023-04-05T23:30:04.321Z,2.92
2023-04-05T23:32:32.136Z,2.68
2023-04-05T23:34:59.933Z,2.49
2023-04-05T23:37:27.718Z,2.30
2023-04-05T23:39:55.662Z,2.15
2023-04-05T23:42:23.506Z,1.99
2023-04-05T23:44:51.317Z,1.86
2023-04-05T23:47:18.987Z,1.74
2023-04-05T23:49:46.843Z,1.63
2023-04-05T23:52:14.724Z,1.53
2023-04-05T23:54:42.422Z,1.44
2023-04-05T23:57:10.384Z,1.35
2023-04-05T23:59:38.297Z,1.65
